Deer Park, Louisiana
Current Conditions -  °F | °C
As of 3:55 PM on Friday 28 Nov 2014 (Local Time) from KHEZ Reporting Station
Clear Clear  
Wind Chill: 61°   Ceiling: Unl
Heat Index: 61°   Visibility: 10mi
Dew Point: 28°   Wind: 9mph
Humidity: 29%   Direction: 160°SSE
Pressure: 30.25"   Gusts: NA
Location:  31.5712°N, 91.5148°W
Report Text: KHEZ 282155Z AUTO 16008KT 10SM CLR 16/M02 A3025 RMK AO1
Loading
Personal Weather Stations






























Interactive Weather Map New forecast layout! Learn more

10-Day Weather Forecast

Advertisements
Track Severe Weather on mobile